Aviation Digital Data Service (ADDS)

Output produced by METARs form (0122 UTC 17 July 2019)
found at http://www.aviationweather.gov/metar/data/
 
HEAX 170100Z 29011KT CAVOK 30/25 Q1002 NOSIG
TAF HEAX 162300Z 1700/1806 29011KT 9999 FEW020
       
HEBA 170100Z 30017KT CAVOK 27/20 Q1003 NOSIG
TAF HEBA 162300Z 1700/1806 29012KT 9999 FEW020
       
HESN 170100Z 04003KT CAVOK 32/07 Q1006 NOSIG
TAF HESN 162300Z 1700/1806 02010KT CAVOK
       
HEAT 170100Z 30005KT CAVOK 30/15 Q1008 NOSIG
TAF HEAT 162300Z 1700/1806 30008G18KT CAVOK
       
HECA 170100Z 19009KT 6000 NSC 36/10 Q1002 NOSIG
TAF HECA 162300Z 1700/1806 18006KT 7000 NSC 
     TEMPO 1700/1709 4000 HZ 
     TEMPO 1702/1708 20012G22KT 3000 SA 
     BECMG 1709/1711 27010KT 9999 SCT025 
     BECMG 1716/1718 33008KT
       
TAF HEAR 162300Z 1700/1806 24010G20KT 6000 FEW025 
     TEMPO 1700/1709 3000 SA 
     PROB30 
     TEMPO 1700/1705 1200
       
HEGN 170100Z 00000KT CAVOK 31/06 Q1004 NOSIG
TAF HEGN 162300Z 1700/1806 29010KT CAVOK
       
HELX 170100Z 18002KT CAVOK 31/14 Q1005 NOSIG
TAF HELX 162300Z 1700/1806 VRB03KT CAVOK 
     BECMG 1710/1712 32008KT
       
HEMM 170100Z 28010KT 9999 FEW020 27/24 Q1005 NOSIG
TAF HEMM 162300Z 1700/1806 30010G20KT 9999 FEW020
       
HEPS 170100Z 32009KT CAVOK 29/22 Q1002 NOSIG
TAF HEPS 162300Z 1700/1806 10012KT 9999 SCT025 
     TEMPO 1700/1708 22012KT 6000 NSC 
     PROB40 1703/1706 20012G22KT 4000 SA 
     BECMG 1708/1710 28010G20KT
       
HESH 170100Z 36003KT CAVOK 32/18 Q1005 NOSIG
TAF HESH 162300Z 1700/1806 34010KT CAVOK
       
TAF HETB 162300Z 1700/1806 27010KT CAVOK